Time;durP1;ratioP1;P1;durP2;ratioP2;P2;SDS_P1;SDS_P2;PMS_P1;PMS_P2;Temp;Humidity;BMP_temperature;BMP_pressure;BME280_temperature;BME280_humidity;BME280_pressure;Samples;Min_cycle;Max_cycle;Signal;HPM_P1;HPM_P2
2022/03/12 00:01:59;;;;;;;26.73;13.20;;;;;;;11.97;37.90;101234.13;5184234;28;20395;-51
2022/03/12 00:04:33;;;;;;;19.30;12.82;;;;;;;11.85;38.07;101226.53;5184943;28;20479;-56
2022/03/12 00:07:12;;;;;;;21.58;12.93;;;;;;;11.92;38.12;101225.81;5183581;28;20411;-50
2022/03/12 00:09:45;;;;;;;24.73;14.07;;;;;;;11.98;38.26;101238.44;5192928;28;20434;-48
2022/03/12 00:12:19;;;;;;;19.35;13.00;;;;;;;11.99;37.87;101242.75;5188229;28;20494;-51
2022/03/12 00:14:51;;;;;;;20.40;12.77;;;;;;;12.01;37.82;101242.59;5187555;28;20526;-48
2022/03/12 00:17:25;;;;;;;23.83;13.77;;;;;;;12.03;37.79;101242.47;5188537;28;20451;-46
2022/03/12 00:20:00;;;;;;;20.35;12.88;;;;;;;11.98;37.73;101232.31;5188558;28;20473;-48
2022/03/12 00:22:32;;;;;;;21.58;12.65;;;;;;;12.04;37.69;101246.75;5188383;28;20406;-53
2022/03/12 00:25:10;;;;;;;17.60;12.40;;;;;;;12.02;37.90;101249.56;5176840;28;20504;-51
2022/03/12 00:27:45;;;;;;;32.65;12.73;;;;;;;11.99;37.82;101245.41;5187340;28;20498;-48
2022/03/12 00:30:21;;;;;;;24.10;12.95;;;;;;;11.81;37.86;101230.44;5188344;28;20427;-49
2022/03/12 00:32:54;;;;;;;19.77;12.95;;;;;;;11.97;38.05;101255.28;5172033;28;20432;-50
2022/03/12 00:35:28;;;;;;;24.73;14.23;;;;;;;11.98;37.98;101258.78;5168598;28;20401;-51
2022/03/12 00:38:00;;;;;;;22.55;13.70;;;;;;;11.94;38.01;101260.88;5185813;28;20501;-47
2022/03/12 00:40:33;;;;;;;21.35;13.50;;;;;;;11.95;38.01;101257.28;5187444;28;20498;-50
2022/03/12 00:43:06;;;;;;;19.65;13.25;;;;;;;11.95;38.19;101257.28;5186024;28;20500;-50
2022/03/12 00:45:39;;;;;;;24.40;13.77;;;;;;;11.95;38.14;101259.06;5177307;28;20407;-47
2022/03/12 00:48:11;;;;;;;21.37;13.97;;;;;;;11.95;38.09;101262.56;5169975;28;20437;-48
2022/03/12 00:50:48;;;;;;;23.17;13.80;;;;;;;11.93;38.19;101261.88;5188430;28;20411;-51
2022/03/12 00:53:20;;;;;;;27.50;14.13;;;;;;;11.94;38.21;101262.72;5188665;28;20490;-47
2022/03/12 00:55:52;;;;;;;26.02;14.52;;;;;;;11.93;38.34;101266.34;5187922;28;20434;-46
2022/03/12 00:58:25;;;;;;;20.30;13.43;;;;;;;11.94;38.47;101274.13;5188345;28;20931;-51
2022/03/12 01:00:58;;;;;;;25.23;14.60;;;;;;;11.90;38.23;101266.63;5187487;28;20439;-52
2022/03/12 01:03:30;;;;;;;22.08;14.43;;;;;;;11.92;38.22;101259.38;5186524;28;20506;-52
2022/03/12 01:06:06;;;;;;;23.83;13.93;;;;;;;11.90;38.31;101259.53;5187258;28;20499;-50
2022/03/12 01:08:38;;;;;;;21.90;14.13;;;;;;;11.89;38.62;101259.66;5203024;28;20459;-51
2022/03/12 01:11:12;;;;;;;26.27;15.25;;;;;;;11.83;38.63;101266.38;5186568;28;20903;-47
2022/03/12 01:13:44;;;;;;;26.00;13.48;;;;;;;11.81;38.75;101263.03;5185932;28;20503;-49
2022/03/12 01:16:18;;;;;;;24.85;12.65;;;;;;;11.76;38.74;101265.28;5174955;28;20459;-49
2022/03/12 01:18:50;;;;;;;24.30;13.73;;;;;;;11.73;39.11;101265.56;5176709;28;20514;-48
2022/03/12 01:21:25;;;;;;;21.30;13.98;;;;;;;11.71;38.95;101267.53;5182675;28;20514;-47
2022/03/12 01:23:57;;;;;;;19.93;14.40;;;;;;;11.72;39.11;101274.50;5186439;28;21133;-50
2022/03/12 01:26:29;;;;;;;26.45;14.20;;;;;;;11.70;39.15;101281.72;5188572;28;20489;-47
2022/03/12 01:29:02;;;;;;;29.70;17.50;;;;;;;11.59;39.22;101263.41;5184935;28;20856;-49
2022/03/12 01:31:36;;;;;;;30.90;18.63;;;;;;;11.62;39.36;101284.28;5184553;28;20826;-50
2022/03/12 01:34:08;;;;;;;27.23;17.45;;;;;;;11.57;39.50;101282.06;5188001;28;20419;-50
2022/03/12 01:36:42;;;;;;;28.23;17.17;;;;;;;11.54;39.86;101272.59;5185855;28;20495;-49
2022/03/12 01:39:14;;;;;;;24.75;17.23;;;;;;;11.50;39.98;101279.16;5184018;28;20457;-54
2022/03/12 01:41:47;;;;;;;23.70;16.30;;;;;;;11.46;39.96;101285.75;5183147;28;20581;-50
2022/03/12 01:44:19;;;;;;;29.20;17.90;;;;;;;11.39;40.09;101284.63;5187092;28;20411;-52
2022/03/12 01:46:52;;;;;;;26.50;16.85;;;;;;;11.10;40.20;101253.00;5185190;28;20919;-47
2022/03/12 01:49:25;;;;;;;26.55;18.23;;;;;;;11.30;40.45;101293.44;5189405;28;20435;-51
2022/03/12 01:51:59;;;;;;;27.17;17.90;;;;;;;11.22;40.60;101309.19;5187225;28;20411;-51
2022/03/12 01:54:33;;;;;;;30.73;18.38;;;;;;;11.16;40.91;101288.59;5186210;28;20450;-51
2022/03/12 01:57:06;;;;;;;29.13;18.85;;;;;;;11.06;40.94;101284.16;5178221;28;20443;-50
2022/03/12 01:59:38;;;;;;;31.67;19.02;;;;;;;11.07;41.31;101291.13;5186772;28;20415;-50
2022/03/12 02:02:13;;;;;;;30.40;20.40;;;;;;;10.99;41.32;101293.63;5185731;28;20498;-49
2022/03/12 02:04:51;;;;;;;35.08;22.70;;;;;;;11.03;41.48;101291.56;5185574;28;20770;-62
2022/03/12 02:07:25;;;;;;;33.22;23.33;;;;;;;11.00;41.69;101290.03;5184219;28;23683;-50
2022/03/12 02:09:59;;;;;;;33.20;21.63;;;;;;;10.91;41.77;101280.31;5186458;28;20426;-46
2022/03/12 02:12:32;;;;;;;30.05;20.10;;;;;;;10.92;42.09;101292.53;5178550;28;20411;-50
2022/03/12 02:15:05;;;;;;;32.05;22.08;;;;;;;10.90;42.04;101283.94;5183681;28;20427;-51
2022/03/12 02:17:39;;;;;;;31.10;20.30;;;;;;;10.85;42.27;101279.03;5184577;28;20419;-49
2022/03/12 02:20:13;;;;;;;30.13;18.75;;;;;;;10.86;42.66;101285.16;5187776;28;20502;-48
2022/03/12 02:22:53;;;;;;;24.67;17.63;;;;;;;10.82;42.69;101278.50;5188108;28;20425;-53
2022/03/12 02:25:32;;;;;;;30.98;18.20;;;;;;;10.81;42.64;101280.31;5186477;28;20419;-50
2022/03/12 02:28:16;;;;;;;25.43;15.70;;;;;;;10.76;43.15;101289.63;5182788;28;20946;-50
2022/03/12 02:30:51;;;;;;;23.80;16.23;;;;;;;10.77;43.09;101278.06;5182902;28;20522;-48
2022/03/12 02:33:28;;;;;;;27.20;16.13;;;;;;;10.79;43.14;101286.72;5186767;28;20609;-57
2022/03/12 02:36:01;;;;;;;22.88;16.17;;;;;;;10.68;43.25;101268.34;5184279;28;20772;-53
2022/03/12 02:38:34;;;;;;;25.45;16.10;;;;;;;10.77;43.54;101286.00;5183633;28;20789;-51
2022/03/12 02:41:11;;;;;;;27.17;15.37;;;;;;;10.78;43.48;101280.59;5181244;28;20430;-48
2022/03/12 02:43:45;;;;;;;25.83;17.00;;;;;;;10.77;43.70;101288.66;5184721;28;20415;-49
2022/03/12 02:46:18;;;;;;;25.77;16.05;;;;;;;10.79;43.65;101281.41;5188115;28;20430;-48
2022/03/12 02:48:53;;;;;;;24.92;15.85;;;;;;;10.74;43.74;101302.13;5186753;28;20771;-48
2022/03/12 02:51:26;;;;;;;25.05;16.48;;;;;;;10.79;43.75;101278.78;5185426;28;20493;-50
2022/03/12 02:53:59;;;;;;;24.20;15.25;;;;;;;10.76;43.60;101276.41;5186685;28;20582;-47
2022/03/12 02:56:35;;;;;;;25.90;16.33;;;;;;;10.83;43.74;101280.16;5187516;28;20416;-47
2022/03/12 02:59:14;;;;;;;22.42;15.18;;;;;;;10.85;43.80;101281.69;5182894;28;20786;-48
2022/03/12 03:01:46;;;;;;;22.50;16.87;;;;;;;10.76;43.88;101273.78;5181792;28;20427;-51
2022/03/12 03:04:22;;;;;;;24.42;16.17;;;;;;;10.91;44.12;101297.97;5185596;28;20415;-46
2022/03/12 03:06:55;;;;;;;22.17;15.07;;;;;;;10.91;44.26;101292.69;5185869;28;20411;-53
2022/03/12 03:09:28;;;;;;;24.40;15.73;;;;;;;10.90;44.38;101294.50;5184720;28;20419;-47
2022/03/12 03:12:06;;;;;;;26.83;17.13;;;;;;;10.92;44.33;101289.88;5185460;28;20496;-51
2022/03/12 03:14:47;;;;;;;21.90;14.98;;;;;;;10.96;44.22;101293.94;5183461;28;20399;-48
2022/03/12 03:17:19;;;;;;;23.00;15.63;;;;;;;10.91;44.34;101290.88;5186211;28;20907;-52
2022/03/12 03:19:52;;;;;;;20.30;14.95;;;;;;;10.86;44.27;101293.09;5186661;28;20794;-50
2022/03/12 03:22:25;;;;;;;22.88;15.48;;;;;;;10.92;44.56;101308.38;5182701;28;20539;-47
2022/03/12 03:24:57;;;;;;;25.95;16.42;;;;;;;10.89;44.57;101298.09;5181617;28;20414;-47
2022/03/12 03:27:31;;;;;;;28.02;18.15;;;;;;;10.88;44.77;101296.44;5181785;28;20561;-59
2022/03/12 03:30:04;;;;;;;24.15;16.02;;;;;;;10.84;44.83;101303.00;5182488;28;20439;-47
2022/03/12 03:32:37;;;;;;;28.42;17.45;;;;;;;10.81;44.83;101300.63;5183763;28;20407;-50
2022/03/12 03:35:10;;;;;;;24.20;17.15;;;;;;;10.78;45.05;101303.53;5184504;28;20419;-55
2022/03/12 03:37:43;;;;;;;29.95;17.13;;;;;;;10.82;45.12;101312.84;5183820;28;20497;-50
2022/03/12 03:40:16;;;;;;;30.88;18.38;;;;;;;10.73;45.14;101313.69;5185187;28;20454;-48
2022/03/12 03:42:50;;;;;;;29.95;18.85;;;;;;;10.73;45.33;101318.97;5184570;28;20518;-46
2022/03/12 03:45:28;;;;;;;31.25;20.60;;;;;;;10.72;45.19;101312.03;5186486;28;20418;-51
2022/03/12 03:48:00;;;;;;;26.95;19.48;;;;;;;10.70;45.19;101319.25;5184174;28;20429;-49
2022/03/12 03:50:33;;;;;;;25.23;18.95;;;;;;;10.67;45.34;101319.53;5184641;28;20437;-57
2022/03/12 03:53:05;;;;;;;32.13;21.97;;;;;;;10.66;45.43;101333.72;5180113;28;20459;-48
2022/03/12 03:55:38;;;;;;;25.20;18.13;;;;;;;10.72;45.35;101333.16;5185155;28;20435;-51
2022/03/12 03:58:14;;;;;;;24.98;17.35;;;;;;;10.56;45.31;101312.56;5184718;28;20513;-50
2022/03/12 04:00:57;;;;;;;27.48;19.13;;;;;;;10.74;45.51;101318.81;5181527;28;20431;-50
2022/03/12 04:03:32;;;;;;;28.55;18.77;;;;;;;10.81;45.55;101327.03;5175176;28;20408;-50
2022/03/12 04:06:06;;;;;;;24.65;16.15;;;;;;;10.82;45.56;101331.34;5181322;28;20586;-51
2022/03/12 04:08:41;;;;;;;24.23;16.52;;;;;;;10.83;45.71;101340.94;5182188;28;20417;-47
2022/03/12 04:11:17;;;;;;;24.17;16.73;;;;;;;10.83;45.69;101348.84;5179086;28;20454;-48
2022/03/12 04:13:53;;;;;;;30.65;18.83;;;;;;;10.84;45.81;101332.88;5185857;28;20498;-53
2022/03/12 04:16:25;;;;;;;21.67;16.23;;;;;;;10.84;45.73;101338.16;5182546;28;20513;-57
2022/03/12 04:18:58;;;;;;;20.93;15.23;;;;;;;10.83;45.79;101340.94;5183909;28;20414;-51
2022/03/12 04:21:31;;;;;;;22.95;15.18;;;;;;;10.83;45.75;101340.94;5187119;28;20450;-49
2022/03/12 04:24:05;;;;;;;21.23;14.90;;;;;;;10.78;45.90;101349.28;5182497;28;20642;-50
2022/03/12 04:26:40;;;;;;;22.05;15.02;;;;;;;10.73;46.16;101348.84;5179226;28;20480;-49
2022/03/12 04:29:14;;;;;;;17.52;13.25;;;;;;;10.74;46.18;101357.63;5183614;28;20433;-51
2022/03/12 04:31:48;;;;;;;18.63;13.20;;;;;;;10.70;46.14;101345.66;5185069;28;20435;-51
2022/03/12 04:34:21;;;;;;;18.77;13.43;;;;;;;10.72;46.33;101354.28;5186221;28;20450;-46
2022/03/12 04:36:53;;;;;;;20.27;13.35;;;;;;;10.70;46.31;101350.94;5180911;28;20791;-52
2022/03/12 04:39:25;;;;;;;17.33;13.95;;;;;;;10.69;46.39;101349.28;5185303;28;20839;-48
2022/03/12 04:41:58;;;;;;;19.90;14.32;;;;;;;10.68;46.52;101352.88;5177973;28;20423;-49
2022/03/12 04:44:32;;;;;;;17.67;12.93;;;;;;;10.68;46.47;101356.34;5180146;28;20417;-46
2022/03/12 04:47:08;;;;;;;17.08;13.60;;;;;;;10.68;46.56;101355.53;5181264;28;20411;-49
2022/03/12 04:49:40;;;;;;;16.67;12.30;;;;;;;10.68;46.63;101363.44;5184315;28;20415;-48
2022/03/12 04:52:13;;;;;;;15.93;11.40;;;;;;;10.68;46.85;101363.44;5186972;28;20509;-48
2022/03/12 04:54:46;;;;;;;15.07;11.65;;;;;;;10.67;47.06;101372.34;5186475;28;20855;-50
2022/03/12 04:57:19;;;;;;;15.88;12.07;;;;;;;10.67;47.06;101377.63;5186340;28;20427;-47
2022/03/12 04:59:53;;;;;;;18.23;11.57;;;;;;;10.70;47.19;101374.72;5187963;28;20807;-49
2022/03/12 05:02:25;;;;;;;19.08;11.52;;;;;;;10.75;47.28;101370.69;5186844;28;20414;-52
2022/03/12 05:04:58;;;;;;;12.63;10.55;;;;;;;10.79;47.41;101372.09;5188741;28;20422;-49
2022/03/12 05:07:32;;;;;;;14.63;10.88;;;;;;;10.85;47.31;101368.06;5189095;28;20402;-48
2022/03/12 05:10:09;;;;;;;14.38;11.07;;;;;;;10.88;47.30;101369.59;5187032;28;20898;-46
2022/03/12 05:12:43;;;;;;;12.82;10.20;;;;;;;10.63;47.38;101339.28;5186292;28;20445;-46
2022/03/12 05:15:18;;;;;;;13.00;9.52;;;;;;;10.83;47.56;101370.00;5186105;28;20733;-50
2022/03/12 05:17:51;;;;;;;14.43;11.10;;;;;;;10.80;47.59;101378.19;5186973;28;20441;-47
2022/03/12 05:20:27;;;;;;;13.40;10.68;;;;;;;10.73;47.84;101371.81;5187345;28;20786;-47
2022/03/12 05:23:00;;;;;;;13.73;10.40;;;;;;;10.58;48.00;101371.34;5186607;28;20666;-49
2022/03/12 05:25:32;;;;;;;14.20;10.50;;;;;;;10.70;48.02;101394.03;5188228;28;20510;-52
2022/03/12 05:28:05;;;;;;;15.90;11.70;;;;;;;10.68;48.07;101392.50;5184995;28;20822;-50
2022/03/12 05:30:39;;;;;;;16.02;10.88;;;;;;;10.67;48.20;101396.13;5184077;28;20404;-49
2022/03/12 05:33:12;;;;;;;13.23;9.18;;;;;;;10.65;48.48;101395.41;5190124;28;20422;-49
2022/03/12 05:35:45;;;;;;;13.32;9.75;;;;;;;10.63;48.39;101397.38;5189205;28;20426;-46
2022/03/12 05:38:18;;;;;;;12.75;9.88;;;;;;;10.60;48.52;101404.59;5185558;28;20492;-49
2022/03/12 05:40:51;;;;;;;12.27;10.10;;;;;;;10.57;48.56;101404.88;5186938;28;20423;-52
2022/03/12 05:43:24;;;;;;;15.45;11.60;;;;;;;10.55;48.78;101409.44;5188407;28;20490;-51
2022/03/12 05:45:59;;;;;;;15.85;10.85;;;;;;;10.54;48.77;101418.34;5186564;28;20849;-53
2022/03/12 05:48:32;;;;;;;13.73;10.80;;;;;;;10.54;48.85;101414.88;5188856;28;20445;-50
2022/03/12 05:51:09;;;;;;;14.63;11.60;;;;;;;10.44;48.93;101404.28;5185188;28;20481;-52
2022/03/12 05:53:43;;;;;;;15.43;12.10;;;;;;;10.50;49.11;101419.59;5186970;28;20423;-50
2022/03/12 05:56:16;;;;;;;13.27;10.50;;;;;;;10.44;49.14;101409.56;5185957;28;20506;-50
2022/03/12 05:58:48;;;;;;;13.50;10.05;;;;;;;10.47;49.43;101427.78;5186414;28;20415;-51
2022/03/12 06:01:22;;;;;;;11.57;9.65;;;;;;;10.44;49.45;101425.41;5186287;28;20434;-47
2022/03/12 06:03:55;;;;;;;15.32;10.02;;;;;;;10.42;49.42;101416.78;5188205;28;20492;-48
2022/03/12 06:06:30;;;;;;;12.70;9.20;;;;;;;10.44;49.74;101429.88;5186800;28;20507;-59
2022/03/12 06:09:05;;;;;;;13.73;10.05;;;;;;;10.43;49.69;101433.44;5187855;28;20419;-48
2022/03/12 06:11:38;;;;;;;15.80;9.90;;;;;;;10.44;49.79;101430.69;5183059;28;20778;-50
2022/03/12 06:14:10;;;;;;;11.85;9.48;;;;;;;10.44;49.76;101435.97;5186067;28;20470;-51
2022/03/12 06:16:48;;;;;;;11.50;9.43;;;;;;;10.46;49.79;101439.31;5186788;28;20485;-52
2022/03/12 06:19:21;;;;;;;12.93;9.68;;;;;;;10.31;50.05;101414.22;5177262;28;20426;-51
2022/03/12 06:21:55;;;;;;;12.10;9.55;;;;;;;10.46;50.17;101447.22;5186661;28;20500;-47
2022/03/12 06:24:27;;;;;;;13.38;9.48;;;;;;;10.27;49.97;101418.94;5183224;28;20419;-53
2022/03/12 06:27:00;;;;;;;12.03;8.53;;;;;;;10.44;50.32;101446.53;5188023;28;20407;-51
2022/03/12 06:29:32;;;;;;;10.45;8.70;;;;;;;10.51;50.53;101446.84;5182244;28;20461;-49
2022/03/12 06:32:08;;;;;;;11.05;8.23;;;;;;;10.48;50.67;101442.66;5184397;28;20486;-49
2022/03/12 06:34:41;;;;;;;10.23;7.75;;;;;;;10.60;50.59;101462.72;5184995;28;20429;-51
2022/03/12 06:37:14;;;;;;;10.90;7.38;;;;;;;10.57;50.76;101452.41;5179285;28;20422;-48
2022/03/12 06:39:46;;;;;;;11.77;8.18;;;;;;;10.64;50.90;101462.44;5183734;28;20439;-48
2022/03/12 06:42:19;;;;;;;9.82;7.90;;;;;;;10.69;50.87;101461.06;5186263;28;20775;-52
2022/03/12 06:44:56;;;;;;;9.88;8.27;;;;;;;10.72;51.04;101466.09;5184633;28;20419;-54
2022/03/12 06:47:30;;;;;;;11.90;7.60;;;;;;;10.73;51.19;101467.75;5186610;28;20418;-53
2022/03/12 06:50:04;;;;;;;9.98;7.65;;;;;;;10.79;51.11;101471.66;5188190;28;20411;-47
2022/03/12 06:52:36;;;;;;;9.68;7.53;;;;;;;10.78;51.15;101470.00;5181274;28;20517;-48
2022/03/12 06:55:10;;;;;;;11.18;7.18;;;;;;;10.81;51.35;101467.91;5186921;28;20474;-59
2022/03/12 06:57:42;;;;;;;11.07;8.20;;;;;;;10.64;51.28;101436.84;5185806;28;20449;-47
2022/03/12 07:00:18;;;;;;;9.13;7.57;;;;;;;10.81;51.44;101470.56;5181978;28;20534;-48
2022/03/12 07:02:52;;;;;;;12.98;7.78;;;;;;;10.67;51.51;101448.97;5182884;28;20438;-48
2022/03/12 07:05:26;;;;;;;10.00;7.82;;;;;;;10.76;51.38;101456.06;5177473;28;20479;-62
2022/03/12 07:07:58;;;;;;;12.32;8.98;;;;;;;10.98;51.32;101476.13;5180994;28;20417;-51
2022/03/12 07:10:31;;;;;;;13.40;9.23;;;;;;;11.00;51.19;101476.84;5181680;28;20549;-46
2022/03/12 07:13:04;;;;;;;10.18;7.68;;;;;;;11.14;51.20;101500.22;5181980;28;20411;-48
2022/03/12 07:15:36;;;;;;;9.35;7.15;;;;;;;11.19;51.31;101498.00;5175592;28;20454;-53
2022/03/12 07:18:10;;;;;;;10.05;7.25;;;;;;;11.23;51.38;101501.22;5173859;28;20446;-47
2022/03/12 07:20:43;;;;;;;12.52;7.72;;;;;;;11.30;51.36;101497.03;5173301;28;20441;-52
2022/03/12 07:23:16;;;;;;;9.88;7.82;;;;;;;11.29;51.40;101487.44;5179099;28;20554;-50
2022/03/12 07:25:49;;;;;;;10.23;7.70;;;;;;;11.44;51.34;101503.72;5164000;28;20411;-56
2022/03/12 07:28:21;;;;;;;10.30;7.22;;;;;;;11.48;51.38;101500.66;5181480;28;20429;-52
2022/03/12 07:30:54;;;;;;;10.98;7.60;;;;;;;11.48;51.55;101503.31;5184361;28;21015;-48
2022/03/12 07:33:28;;;;;;;11.88;7.63;;;;;;;11.50;51.48;101498.72;5182384;28;20887;-50
2022/03/12 07:36:00;;;;;;;14.27;8.80;;;;;;;11.51;51.46;101504.84;5183957;28;20415;-50
2022/03/12 07:38:33;;;;;;;10.82;8.13;;;;;;;11.50;51.36;101506.66;5183849;28;20496;-52
2022/03/12 07:41:06;;;;;;;9.27;7.88;;;;;;;11.57;51.59;101519.31;5183386;28;20430;-54
2022/03/12 07:43:38;;;;;;;10.82;7.97;;;;;;;11.61;51.41;101510.97;5184255;28;20476;-48
2022/03/12 07:46:11;;;;;;;12.18;8.05;;;;;;;11.66;51.38;101513.19;5185824;28;20494;-51
2022/03/12 07:49:05;;;;;;;10.75;7.60;;;;;;;11.70;51.46;101522.50;5184749;28;20465;-55
2022/03/12 07:51:38;;;;;;;9.25;6.70;;;;;;;11.47;51.44;101482.31;5179158;28;20478;-53
2022/03/12 07:54:12;;;;;;;7.65;6.28;;;;;;;11.62;51.67;101506.53;5184260;28;20469;-50
2022/03/12 07:56:45;;;;;;;9.40;7.00;;;;;;;11.70;51.44;101511.94;5180366;28;20431;-57
2022/03/12 07:59:19;;;;;;;8.60;6.72;;;;;;;11.88;51.53;101534.09;5180872;28;20442;-53
2022/03/12 08:01:52;;;;;;;8.60;6.82;;;;;;;11.95;51.38;101532.56;5182324;28;20436;-53
2022/03/12 08:04:26;;;;;;;11.00;6.40;;;;;;;11.98;51.12;101529.63;5181185;28;20441;-49
2022/03/12 08:07:02;;;;;;;10.20;6.72;;;;;;;12.03;51.46;101541.59;5182951;28;20805;-55
2022/03/12 08:09:34;;;;;;;9.50;6.45;;;;;;;12.06;51.30;101541.31;5183399;28;20431;-50
2022/03/12 08:12:09;;;;;;;9.35;6.72;;;;;;;12.09;51.36;101549.81;5181820;28;20409;-53
2022/03/12 08:14:44;;;;;;;9.63;6.73;;;;;;;12.06;51.30;101544.81;5185750;28;20498;-48
2022/03/12 08:17:19;;;;;;;12.82;7.05;;;;;;;12.20;51.12;101562.91;5187577;28;20818;-49
2022/03/12 08:19:54;;;;;;;11.98;6.85;;;;;;;12.24;51.16;101550.22;5184643;28;20406;-51
2022/03/12 08:22:28;;;;;;;9.13;6.53;;;;;;;12.44;51.16;101557.09;5183861;28;20419;-49
2022/03/12 08:25:01;;;;;;;11.65;7.00;;;;;;;12.66;50.94;101560.38;5183538;28;20420;-48
2022/03/12 08:27:34;;;;;;;7.43;6.03;;;;;;;13.03;50.54;101565.63;5188413;28;20419;-49
2022/03/12 08:30:10;;;;;;;6.63;5.70;;;;;;;13.59;50.22;101579.69;5186856;28;20427;-50
2022/03/12 08:32:42;;;;;;;8.73;5.65;;;;;;;13.86;49.67;101567.31;5183847;28;20503;-51
2022/03/12 08:35:17;;;;;;;8.23;6.00;;;;;;;14.37;49.29;101584.28;5187349;28;20568;-55
2022/03/12 08:37:50;;;;;;;7.20;5.45;;;;;;;14.78;48.86;101576.59;5185131;28;20459;-52
2022/03/12 08:40:25;;;;;;;8.63;5.50;;;;;;;14.89;48.91;101573.63;5175132;28;20423;-52
2022/03/12 08:42:58;;;;;;;10.35;5.32;;;;;;;15.25;48.54;101578.75;5188201;28;20415;-54
2022/03/12 08:45:30;;;;;;;9.73;5.60;;;;;;;15.90;47.56;101584.19;5185954;28;20894;-52
2022/03/12 08:48:03;;;;;;;9.27;5.22;;;;;;;16.28;46.91;101549.84;5185789;28;20508;-51
2022/03/12 08:50:37;;;;;;;8.07;5.53;;;;;;;16.74;46.66;101582.06;5177876;28;20932;-56
2022/03/12 08:53:09;;;;;;;6.78;5.07;;;;;;;16.94;46.40;101583.34;5183784;28;20441;-48
2022/03/12 08:55:41;;;;;;;9.30;5.10;;;;;;;17.22;46.02;101581.06;5187643;28;20418;-49
2022/03/12 08:58:14;;;;;;;7.82;4.80;;;;;;;17.14;46.23;101596.28;5187595;28;20494;-51
2022/03/12 09:00:47;;;;;;;6.80;4.82;;;;;;;16.95;46.60;101590.34;5187220;28;20996;-52
2022/03/12 09:03:20;;;;;;;9.93;5.53;;;;;;;17.03;46.41;101582.31;5187371;28;20775;-49
2022/03/12 09:05:54;;;;;;;7.55;5.00;;;;;;;17.30;46.15;101593.50;5187736;28;20419;-53
2022/03/12 09:08:27;;;;;;;8.77;5.00;;;;;;;17.35;46.10;101585.00;5186665;28;20778;-51
2022/03/12 09:11:00;;;;;;;7.45;4.93;;;;;;;17.26;45.97;101569.00;5185313;28;20501;-49
2022/03/12 09:13:32;;;;;;;9.17;5.10;;;;;;;17.55;45.85;101591.50;5187366;28;20886;-54
2022/03/12 09:16:06;;;;;;;8.23;5.07;;;;;;;17.32;46.09;101596.84;5184452;28;20415;-52
2022/03/12 09:18:38;;;;;;;12.25;5.03;;;;;;;17.14;46.36;101599.75;5182645;28;20498;-51
2022/03/12 09:21:12;;;;;;;10.00;4.78;;;;;;;16.82;46.59;101590.91;5186699;28;20903;-52
2022/03/12 09:23:45;;;;;;;9.05;4.80;;;;;;;16.62;46.94;101610.94;5184849;28;20443;-53
2022/03/12 09:26:21;;;;;;;6.43;4.60;;;;;;;16.22;47.14;101614.50;5185768;28;20628;-57
2022/03/12 09:28:53;;;;;;;11.35;5.18;;;;;;;15.84;47.50;101606.19;5186273;28;20407;-50
2022/03/12 09:31:26;;;;;;;7.45;5.25;;;;;;;15.62;47.65;101605.78;5181373;28;20510;-57
2022/03/12 09:34:00;;;;;;;10.38;5.00;;;;;;;15.43;47.87;101616.72;5183124;28;20903;-53
2022/03/12 09:36:35;;;;;;;9.35;4.78;;;;;;;15.17;47.88;101617.66;5180318;28;20440;-51
2022/03/12 09:39:09;;;;;;;8.60;4.90;;;;;;;15.00;48.23;101618.59;5177729;28;20434;-56
2022/03/12 09:41:41;;;;;;;8.77;4.60;;;;;;;14.88;48.30;101609.22;5173972;28;20479;-50
2022/03/12 09:44:14;;;;;;;9.25;4.30;;;;;;;14.82;48.15;101610.69;5175514;28;21138;-49
2022/03/12 09:46:47;;;;;;;8.35;4.10;;;;;;;14.83;48.23;101617.66;5183340;28;20435;-62
2022/03/12 09:49:19;;;;;;;11.02;4.07;;;;;;;14.79;48.23;101612.81;5180231;28;20490;-59
2022/03/12 09:51:53;;;;;;;9.05;4.22;;;;;;;14.74;48.11;101605.31;5176886;28;20522;-52
2022/03/12 09:54:28;;;;;;;10.95;4.25;;;;;;;14.82;48.02;101621.31;5163587;28;20915;-55
2022/03/12 09:57:01;;;;;;;9.45;3.50;;;;;;;14.88;47.88;101615.34;5162334;28;20892;-50
2022/03/12 09:59:34;;;;;;;9.95;3.72;;;;;;;14.89;47.63;101613.53;5163515;28;20432;-53
2022/03/12 10:02:06;;;;;;;8.37;3.60;;;;;;;14.90;47.76;101621.38;5157036;28;20437;-54
2022/03/12 10:04:39;;;;;;;12.35;3.67;;;;;;;14.85;47.81;101630.81;5165984;28;20471;-50
2022/03/12 10:07:13;;;;;;;9.32;3.60;;;;;;;14.83;47.61;101638.09;5166274;28;20419;-51
2022/03/12 10:09:45;;;;;;;11.07;3.85;;;;;;;14.85;47.73;101641.44;5165494;28;20424;-47
2022/03/12 10:12:19;;;;;;;7.95;3.88;;;;;;;14.78;47.46;101629.78;5168232;28;20883;-52
2022/03/12 10:14:52;;;;;;;9.95;4.03;;;;;;;14.90;47.37;101636.50;5167144;28;20425;-52
2022/03/12 10:17:24;;;;;;;9.35;3.35;;;;;;;15.05;47.41;101650.88;5167888;28;20511;-48
2022/03/12 10:19:57;;;;;;;9.90;3.30;;;;;;;15.09;47.34;101644.22;5165454;28;20497;-50
2022/03/12 10:22:31;;;;;;;9.23;3.45;;;;;;;15.07;47.32;101646.19;5167909;28;20432;-47
2022/03/12 10:25:06;;;;;;;6.80;2.88;;;;;;;15.07;47.29;101664.81;5166591;28;21867;-51
2022/03/12 10:27:39;;;;;;;7.97;4.25;;;;;;;15.11;47.32;101636.06;5153855;28;20521;-50
2022/03/12 10:30:13;;;;;;;8.85;3.90;;;;;;;15.31;47.00;101647.31;5165220;28;20793;-50
2022/03/12 10:32:47;;;;;;;10.40;3.43;;;;;;;15.44;46.96;101647.66;5163347;28;20574;-49
2022/03/12 10:35:22;;;;;;;5.45;3.22;;;;;;;15.54;46.89;101658.19;5163460;28;20433;-51
2022/03/12 10:37:56;;;;;;;9.73;3.30;;;;;;;15.48;46.80;101653.50;5165199;28;20411;-56
2022/03/12 10:40:30;;;;;;;6.57;3.25;;;;;;;15.50;46.85;101659.50;5166156;28;20503;-52
2022/03/12 10:43:12;;;;;;;9.50;3.40;;;;;;;15.42;46.69;101662.97;5167669;28;20769;-53
2022/03/12 10:45:47;;;;;;;8.55;3.60;;;;;;;15.43;46.72;101659.31;5164983;28;20912;-53
2022/03/12 10:48:22;;;;;;;7.47;3.47;;;;;;;15.42;46.70;101666.47;5166704;28;21109;-49
2022/03/12 10:50:56;;;;;;;10.43;3.60;;;;;;;15.32;46.66;101655.13;5164071;28;20500;-49
2022/03/12 10:53:32;;;;;;;6.72;3.45;;;;;;;15.26;46.77;101645.13;5177955;28;20422;-47
2022/03/12 10:56:07;;;;;;;6.18;3.45;;;;;;;15.27;46.69;101651.25;5185615;28;20419;-49
2022/03/12 10:58:40;;;;;;;9.52;4.38;;;;;;;15.31;46.71;101669.44;5182776;28;20838;-51
2022/03/12 11:01:13;;;;;;;11.30;5.03;;;;;;;15.33;46.55;101666.59;5187770;28;20441;-58
2022/03/12 11:03:47;;;;;;;10.90;5.40;;;;;;;15.35;46.73;101661.94;5182905;28;20771;-53
2022/03/12 11:06:24;;;;;;;7.53;4.75;;;;;;;15.37;46.46;101655.47;5182262;28;20430;-51
2022/03/12 11:08:57;;;;;;;12.10;5.30;;;;;;;15.47;46.33;101668.66;5180053;28;20422;-53
2022/03/12 11:11:31;;;;;;;11.07;4.20;;;;;;;15.41;46.51;101674.63;5182392;28;20429;-50
2022/03/12 11:14:05;;;;;;;10.85;4.53;;;;;;;15.42;46.50;101684.25;5181893;28;20506;-53
2022/03/12 11:16:38;;;;;;;11.18;5.15;;;;;;;15.42;46.59;101686.91;5178178;28;20426;-49
2022/03/12 11:19:12;;;;;;;9.95;4.63;;;;;;;15.42;46.37;101692.25;5183535;28;20430;-54
2022/03/12 11:21:51;;;;;;;11.80;5.00;;;;;;;15.53;46.70;101689.28;5176995;28;20777;-52
2022/03/12 11:24:43;;;;;;;10.15;4.97;;;;;;;15.55;46.45;101666.03;5181694;28;20426;-51
2022/03/12 11:27:28;;;;;;;10.90;4.10;;;;;;;15.64;46.23;101675.69;5175489;28;20662;-49
2022/03/12 11:30:04;;;;;;;6.38;3.28;;;;;;;15.72;46.44;101674.06;5185811;28;20952;-47
2022/03/12 11:32:46;;;;;;;9.95;4.18;;;;;;;15.63;46.47;101671.34;5180615;28;20910;-49
2022/03/12 11:35:22;;;;;;;8.65;3.90;;;;;;;15.65;46.47;101674.69;5184866;28;20416;-52
2022/03/12 11:37:56;;;;;;;10.50;4.20;;;;;;;15.76;46.24;101683.38;5184371;28;20489;-52
2022/03/12 11:40:42;;;;;;;10.48;3.92;;;;;;;15.79;46.08;101680.41;5180377;28;20415;-50
2022/03/12 11:43:24;;;;;;;8.13;4.25;;;;;;;15.88;46.11;101685.56;5180895;28;20568;-47
2022/03/12 11:45:59;;;;;;;9.83;4.70;;;;;;;15.99;45.87;101689.78;5183771;28;20795;-51